This demonstration page uses our WeatherBlox Daily Observations layout. Learn more.

Left ArrowRight Arrow

Hourly Observations for May 25, 2020

Temp ( °F °C ) Dew Point ( °F °C ) Humidity (%) Winds ( mph kmh ) Pressure ( in mb ) Visibility ( mi km ) Precip ( " mm )
12:22 am 00:22 Cloudy with Nearby Thunderstorms N/A N/A N/A NNE 23 37 N/A 9 14 0.09 2.29
12:52 am 00:52 Cloudy with Rain N/A N/A N/A NNE 22 35 N/A 9 14 0.22 5.59
12:56 am 00:56 Cloudy with Light Rain N/A N/A N/A NNE 21 33 N/A 9 14 0.23 5.84
1:27 am 01:27 Cloudy with Rain N/A N/A N/A NNE 14 22 N/A 10 16 0.11 2.79
1:38 am 01:38 Cloudy with Rain N/A N/A N/A NNE 13 20 N/A 8 13 0.16 4.06
1:56 am 01:56 Cloudy with Rain N/A N/A N/A NE 12 19 N/A 9 14 0.24 6.10
2:42 am 02:42 Cloudy with Rain N/A N/A N/A NNE 13 20 N/A 10 16 0.22 5.59
2:49 am 02:49 Cloudy with Rain N/A N/A N/A NNE 15 24 N/A 10 16 0.24 6.10
2:56 am 02:56 Cloudy with Rain N/A N/A N/A NNE 15 24 N/A 10 16 0.25 6.35
3:13 am 03:13 Cloudy with Rain N/A N/A N/A NE 13 20 N/A 10 16 0.00 0.00
3:27 am 03:27 Cloudy with Rain N/A N/A N/A NNE 16 26 N/A 10 16 0.08 2.03
3:56 am 03:56 Cloudy with Rain N/A N/A N/A N 21 33 N/A 8 13 0.16 4.06
4:30 am 04:30 Cloudy with Light Rain N/A N/A N/A N 17 28 N/A 10 16 0.01 0.25
4:43 am 04:43 Cloudy with Light Rain N/A N/A N/A N 15 24 N/A 10 16 0.02 0.51
4:56 am 04:56 Cloudy with Light Rain N/A N/A N/A N 23 37 N/A 10 16 0.02 0.51
5:08 am 05:08 Cloudy with Light Rain N/A N/A N/A N 22 35 N/A 9 14 0.00 0.00
5:16 am 05:16 Cloudy with Light Rain N/A N/A N/A N 23 37 N/A 10 16 0.00 0.00
5:56 am 05:56 Cloudy with Light Rain N/A N/A N/A N 24 39 N/A 10 16 0.00 0.00
6:56 am 06:56 Cloudy with Light Rain N/A N/A N/A N 16 26 N/A 10 16 0.00 0.00
7:56 am 07:56 Cloudy with Light Rain N/A N/A N/A N 18 30 N/A 3 5 0.03 0.76
8:56 am 08:56 Cloudy N/A N/A N/A N 23 37 N/A 10 16 0.00 0.00
9:56 am 09:56 Cloudy N/A N/A N/A N 18 30 N/A 10 16 0.00 0.00
10:56 am 10:56 Cloudy N/A N/A N/A N 17 28 N/A 10 16 0.00 0.00
11:26 am 11:26 Cloudy with Light Rain N/A N/A N/A N 21 33 N/A 4 6 0.00 0.00
11:56 am 11:56 Cloudy N/A N/A N/A N 17 28 N/A 5 8 0.00 0.00
12:56 pm 12:56 Cloudy with Light Rain N/A N/A N/A N 22 35 N/A 10 16 0.01 0.25
1:56 pm 13:56 Cloudy with Light Rain N/A N/A N/A NNW 22 35 N/A 6 10 0.00 0.00
2:05 pm 14:05 Cloudy N/A N/A N/A NNW 17 28 N/A 6 10 0.00 0.00
2:56 pm 14:56 Cloudy N/A N/A N/A NNW 21 33 N/A 10 16 0.01 0.25
3:35 pm 15:35 Cloudy N/A N/A N/A NNW 17 28 N/A 10 16 0.00 0.00
3:56 pm 15:56 Cloudy with Light Rain N/A N/A N/A NNW 18 30 N/A 10 16 0.00 0.00
4:47 pm 16:47 Cloudy with Light Rain N/A N/A N/A NNW 15 24 N/A 8 13 0.03 0.76
4:56 pm 16:56 Cloudy with Light Rain N/A N/A N/A NNW 15 24 N/A 8 13 0.04 1.02
5:56 pm 17:56 Cloudy with Light Rain N/A N/A N/A N 14 22 N/A 10 16 0.03 0.76
6:56 pm 18:56 Mostly Cloudy N/A N/A N/A N 14 22 N/A 10 16 0.00 0.00
7:56 pm 19:56 Cloudy N/A N/A N/A N 12 19 N/A 10 16 0.00 0.00
8:56 pm 20:56 Cloudy N/A N/A N/A N 8 13 N/A 10 16 0.00 0.00
9:56 pm 21:56 Cloudy N/A N/A N/A N 8 13 N/A 10 16 0.00 0.00
10:56 pm 22:56 Cloudy N/A N/A N/A NNE 7 11 N/A 10 16 0.00 0.00
11:56 pm 23:56 Mostly Cloudy N/A N/A N/A NW 7 11 N/A 10 16 0.00 0.00

Powered by AerisWeather